Time;durP1;ratioP1;P1;durP2;ratioP2;P2;SDS_P1;SDS_P2;PMS_P1;PMS_P2;Temp;Humidity;BMP_temperature;BMP_pressure;BME280_temperature;BME280_humidity;BME280_pressure;Samples;Min_cycle;Max_cycle;Signal;HPM_P1;HPM_P2
2022/10/02 00:00:01;;;;;;;9.25;4.58;;;;;;;11.72;100.00;99767.39;3509626;82;31722;-86
2022/10/02 00:05:10;;;;;;;9.13;4.40;;;;;;;11.72;100.00;99772.91;3514306;81;98597;-86
2022/10/02 00:10:19;;;;;;;7.80;4.30;;;;;;;11.73;100.00;99788.25;3500490;82;30808;-86
2022/10/02 00:15:26;;;;;;;8.68;4.72;;;;;;;11.74;100.00;99786.30;3476055;82;98455;-86
2022/10/02 00:20:39;;;;;;;8.63;4.62;;;;;;;11.74;100.00;99798.12;3528033;82;29857;-88
2022/10/02 00:25:57;;;;;;;9.50;5.10;;;;;;;11.77;100.00;99795.92;3514423;82;99133;-86
2022/10/02 00:31:22;;;;;;;8.63;5.15;;;;;;;11.80;100.00;99798.48;3495546;82;31709;-85
2022/10/02 00:36:50;;;;;;;9.45;4.80;;;;;;;11.82;100.00;99810.67;3505074;82;98885;-86
2022/10/02 00:42:35;;;;;;;7.87;4.50;;;;;;;11.82;100.00;99810.67;3482282;82;30691;-86
2022/10/02 00:48:22;;;;;;;9.13;4.72;;;;;;;11.84;100.00;99816.56;3468276;82;98380;-84
2022/10/02 00:53:56;;;;;;;12.10;4.22;;;;;;;11.86;100.00;99829.38;3474910;83;29829;-86
2022/10/02 00:59:29;;;;;;;7.80;4.00;;;;;;;11.87;100.00;99830.95;3465192;83;30056;-86
2022/10/02 01:04:37;;;;;;;10.72;4.45;;;;;;;11.88;100.00;99835.88;3465367;83;98903;-86
2022/10/02 01:09:40;;;;;;;8.28;3.90;;;;;;;11.91;100.00;99835.86;3479912;83;29882;-88
2022/10/02 01:14:41;;;;;;;7.62;4.90;;;;;;;11.93;100.00;99843.74;3479488;83;98691;-85
2022/10/02 01:19:42;;;;;;;8.97;4.03;;;;;;;11.96;100.00;99847.06;3477403;83;26182;-86
2022/10/02 01:24:52;;;;;;;10.93;4.87;;;;;;;11.97;100.00;99852.19;3470106;83;98879;-86
2022/10/02 01:30:00;;;;;;;10.93;4.83;;;;;;;12.00;100.00;99867.91;3490697;83;32191;-86
2022/10/02 01:35:01;;;;;;;8.57;3.73;;;;;;;12.01;100.00;99882.50;3471055;82;99180;-86
2022/10/02 01:40:10;;;;;;;7.50;3.65;;;;;;;12.02;100.00;99894.52;3480202;83;31199;-86
2022/10/02 01:45:11;;;;;;;9.73;4.20;;;;;;;12.03;100.00;99894.70;3476274;83;99140;-85
2022/10/02 01:50:50;;;;;;;5.27;2.97;;;;;;;12.03;100.00;99900.22;3476276;83;25851;-86
2022/10/02 01:56:23;;;;;;;11.05;3.30;;;;;;;12.02;100.00;99900.04;3453003;83;98472;-85
2022/10/02 02:01:53;;;;;;;9.23;2.75;;;;;;;12.04;100.00;99912.82;3481538;82;32374;-86
2022/10/02 02:07:02;;;;;;;5.47;2.37;;;;;;;12.06;100.00;99914.61;3460152;83;98527;-85
2022/10/02 02:12:18;;;;;;;8.68;2.37;;;;;;;12.06;100.00;99924.27;3482085;83;31615;-85
2022/10/02 02:17:26;;;;;;;8.83;2.30;;;;;;;12.06;100.00;99935.30;3465282;83;98924;-85
2022/10/02 02:22:44;;;;;;;8.75;2.77;;;;;;;12.08;100.00;99934.88;3478850;83;31847;-85
2022/10/02 02:27:52;;;;;;;5.65;2.20;;;;;;;12.07;100.00;99949.86;3441793;83;98798;-85
2022/10/02 02:32:59;;;;;;;8.58;3.35;;;;;;;12.09;100.00;99955.75;3473552;83;31779;-85
2022/10/02 02:38:05;;;;;;;7.12;2.10;;;;;;;12.08;100.00;99957.73;3454718;83;98695;-85
2022/10/02 02:43:24;;;;;;;7.50;2.52;;;;;;;12.05;100.00;99957.14;3468470;83;25849;-85
2022/10/02 02:48:33;;;;;;;9.60;3.40;;;;;;;12.04;100.00;99959.71;3474891;82;98500;-86
2022/10/02 02:53:41;;;;;;;6.90;2.17;;;;;;;12.03;100.00;99960.10;3468958;82;98874;-85
2022/10/02 02:59:11;;;;;;;12.25;2.00;;;;;;;12.03;100.00;99961.48;3473412;82;31658;-84
2022/10/02 03:04:14;;;;;;;12.15;2.52;;;;;;;12.02;100.00;99968.19;3463104;83;98763;-86
2022/10/02 03:09:20;;;;;;;7.95;2.30;;;;;;;12.01;100.00;99972.13;3473678;83;31717;-88
2022/10/02 03:14:46;;;;;;;;;;;;;;;11.98;100.00;99968.20;3469534;83;98952;-86
2022/10/02 03:20:13;;;;;;;8.58;2.52;;;;;;;11.97;100.00;99977.66;3459331;83;31716;-84
2022/10/02 03:25:38;;;;;;;10.88;2.75;;;;;;;11.97;100.00;99985.94;3459062;83;98897;-86
2022/10/02 03:30:40;;;;;;;7.25;2.00;;;;;;;11.95;100.00;99982.00;3482555;83;31329;-85
2022/10/02 03:35:42;;;;;;;8.30;2.20;;;;;;;11.92;100.00;99980.82;3469291;82;98648;-86
2022/10/02 03:40:43;;;;;;;7.60;2.33;;;;;;;11.90;100.00;99985.95;3458576;83;31656;-85
2022/10/02 03:45:44;;;;;;;7.80;2.70;;;;;;;11.88;100.00;99984.16;3508928;82;98626;-87
2022/10/02 03:50:46;;;;;;;12.77;2.83;;;;;;;11.86;100.00;99990.67;3514614;82;29186;-87
2022/10/02 03:56:07;;;;;;;7.87;1.87;;;;;;;11.84;100.00;99992.25;3511099;82;99048;-85
2022/10/02 04:01:19;;;;;;;15.20;3.08;;;;;;;11.82;100.00;99993.25;3517281;82;31646;-85
2022/10/02 04:06:31;;;;;;;7.37;1.98;;;;;;;11.81;100.00;99995.20;3507783;82;99014;-84
2022/10/02 04:11:38;;;;;;;8.35;2.17;;;;;;;11.80;100.00;99996.40;3514865;82;32253;-87
2022/10/02 04:16:50;;;;;;;10.35;2.83;;;;;;;11.79;100.00;99996.78;3514596;82;98846;-88
2022/10/02 04:22:06;;;;;;;6.47;1.77;;;;;;;11.77;100.00;100002.69;3515200;82;28814;-85
2022/10/02 04:27:18;;;;;;;8.98;2.00;;;;;;;11.79;100.00;100017.46;3528194;82;98844;-86
2022/10/02 04:32:25;;;;;;;13.08;3.33;;;;;;;11.79;100.00;100017.46;3512972;82;31718;-85
2022/10/02 04:37:40;;;;;;;12.63;2.67;;;;;;;11.80;100.00;100035.00;3506262;82;99064;-85
2022/10/02 04:43:31;;;;;;;12.18;3.55;;;;;;;11.79;100.00;100033.42;3503417;82;32213;-85
2022/10/02 04:48:43;;;;;;;9.00;2.47;;;;;;;11.79;100.00;100033.42;3470797;83;98933;-86
2022/10/02 04:54:12;;;;;;;11.17;2.90;;;;;;;11.80;100.00;100042.47;3484555;82;99080;-87
2022/10/02 04:59:39;;;;;;;9.25;2.85;;;;;;;11.82;100.00;100051.16;3475415;83;30861;-85
2022/10/02 05:05:14;;;;;;;8.85;2.92;;;;;;;11.82;100.00;100051.16;3470269;83;99158;-86
2022/10/02 05:10:41;;;;;;;11.30;3.60;;;;;;;11.80;100.00;100052.92;3493327;83;31637;-85
2022/10/02 05:16:07;;;;;;;7.85;2.50;;;;;;;11.80;100.00;100047.41;3464332;83;98808;-85
2022/10/02 05:21:24;;;;;;;10.50;2.63;;;;;;;11.81;100.00;100048.17;3485210;83;25936;-84
2022/10/02 05:26:45;;;;;;;12.03;2.90;;;;;;;11.81;100.00;100058.63;3482840;83;98921;-84
2022/10/02 05:32:21;;;;;;;12.23;2.83;;;;;;;11.82;100.00;100056.67;3489151;82;30446;-85
2022/10/02 05:38:04;;;;;;;11.53;3.12;;;;;;;11.80;100.00;100069.46;3472161;83;98835;-84
2022/10/02 05:43:22;;;;;;;13.58;3.15;;;;;;;11.80;100.00;100069.46;3438022;83;32197;-85
2022/10/02 05:48:48;;;;;;;8.70;2.40;;;;;;;11.81;100.00;100067.47;3386963;84;99562;-85
2022/10/02 05:54:03;;;;;;;11.22;3.47;;;;;;;11.83;100.00;100076.16;3395598;85;99138;-87
2022/10/02 05:59:27;;;;;;;12.18;3.25;;;;;;;11.82;100.00;100076.73;3408403;85;30156;-86
2022/10/02 06:04:36;;;;;;;14.47;3.12;;;;;;;11.84;100.00;100082.63;3395488;85;98907;-85
2022/10/02 06:10:01;;;;;;;7.83;2.90;;;;;;;11.87;100.00;100091.52;3393778;85;31561;-85
2022/10/02 06:15:11;;;;;;;9.05;2.90;;;;;;;11.87;99.94;100088.75;3396855;85;99021;-86
2022/10/02 06:20:27;;;;;;;11.30;3.10;;;;;;;11.87;99.64;100094.27;3400777;85;30463;-86
2022/10/02 06:25:45;;;;;;;11.45;3.47;;;;;;;11.89;99.54;100097.41;3395125;85;99181;-86
2022/10/02 06:30:55;;;;;;;9.85;2.37;;;;;;;11.91;99.29;100099.78;3397360;85;31691;-85
2022/10/02 06:37:27;;;;;;;;;;;;;;;;;;;;;
2022/10/02 06:41:40;;;;;;;10.47;2.90;;;;;;;11.83;98.92;100085.20;3184744;89;30407;-85
2022/10/02 06:47:10;;;;;;;10.15;3.37;;;;;;;11.98;98.88;100106.09;3445001;83;99033;-85
2022/10/02 06:52:16;;;;;;;11.80;2.83;;;;;;;12.04;98.91;100104.52;3435711;84;29981;-84
2022/10/02 06:57:38;;;;;;;;;;;;;;;12.11;98.90;100115.53;3455166;84;98953;-85
2022/10/02 07:03:16;;;;;;;10.93;3.65;;;;;;;12.16;98.93;100117.91;3439498;84;31719;-85
2022/10/02 07:08:54;;;;;;;14.25;4.05;;;;;;;12.12;98.37;100079.90;3441421;84;98555;-85
2022/10/02 07:14:00;;;;;;;9.80;3.17;;;;;;;12.12;98.37;100079.90;3434464;84;98824;-84
2022/10/02 07:19:50;;;;;;;14.13;3.40;;;;;;;12.31;98.33;100102.15;3445933;84;26217;-86
2022/10/02 07:25:20;;;;;;;10.57;3.10;;;;;;;12.35;98.22;100114.75;3434365;84;99081;-85
2022/10/02 07:30:21;;;;;;;9.08;2.55;;;;;;;12.42;97.76;100114.73;3449202;84;31646;-84
2022/10/02 07:35:50;;;;;;;11.80;3.00;;;;;;;12.45;97.49;100116.71;3439529;84;98587;-86
2022/10/02 07:41:02;;;;;;;10.30;3.70;;;;;;;12.50;97.20;100118.27;3435353;84;28818;-84
2022/10/02 07:46:27;;;;;;;16.48;3.75;;;;;;;12.56;97.12;100113.34;3423262;84;98795;-84
2022/10/02 07:51:45;;;;;;;9.05;3.60;;;;;;;12.64;96.96;100109.36;3417802;85;31733;-83
2022/10/02 07:56:49;;;;;;;7.87;3.08;;;;;;;12.73;97.30;100110.33;3401832;85;99001;-86
2022/10/02 08:01:51;;;;;;;13.72;3.02;;;;;;;12.84;96.87;100115.22;3432887;85;31193;-85
2022/10/02 08:06:57;;;;;;;17.17;4.03;;;;;;;12.94;96.55;100115.79;3413685;85;99172;-86
2022/10/02 08:12:08;;;;;;;9.23;2.93;;;;;;;12.98;96.07;100111.08;3415686;85;26283;-89
2022/10/02 08:17:48;;;;;;;13.98;3.60;;;;;;;12.97;95.86;100111.66;3410330;85;98644;-86
2022/10/02 08:23:22;;;;;;;13.25;3.33;;;;;;;13.03;96.11;100118.95;3425839;85;31663;-86
2022/10/02 08:28:40;;;;;;;12.25;3.92;;;;;;;13.08;95.83;100124.84;3410257;85;98632;-86
2022/10/02 08:33:42;;;;;;;10.20;2.77;;;;;;;13.15;95.42;100115.16;3397176;85;98641;-86
2022/10/02 08:38:57;;;;;;;15.20;4.25;;;;;;;13.24;95.23;100118.87;3418721;85;32449;-87
2022/10/02 08:44:26;;;;;;;11.73;3.83;;;;;;;13.30;94.96;100126.32;3417726;84;98847;-87
2022/10/02 08:49:45;;;;;;;8.68;2.92;;;;;;;13.34;94.26;100129.86;3442555;84;32227;-86
2022/10/02 08:55:17;;;;;;;11.05;3.00;;;;;;;13.41;94.11;100120.14;3440429;84;98505;-85
2022/10/02 09:00:32;;;;;;;12.85;3.67;;;;;;;13.48;93.55;100129.80;3444160;84;32939;-86
2022/10/02 09:06:08;;;;;;;11.70;3.67;;;;;;;13.48;93.79;100118.73;3428405;84;98906;-87
2022/10/02 09:11:22;;;;;;;11.97;3.10;;;;;;;13.47;92.91;100124.05;3441854;84;54748;-86
2022/10/02 09:16:34;;;;;;;13.38;3.00;;;;;;;13.48;93.02;100120.70;3444520;84;99381;-86
2022/10/02 09:21:55;;;;;;;11.38;3.33;;;;;;;13.47;93.39;100128.81;3440954;84;31445;-87
2022/10/02 09:27:21;;;;;;;11.73;3.17;;;;;;;13.38;93.36;100129.84;3432995;84;99136;-86
2022/10/02 09:33:02;;;;;;;13.20;2.77;;;;;;;13.32;93.64;100130.06;3433579;84;25819;-86
2022/10/02 09:38:14;;;;;;;14.10;3.40;;;;;;;13.34;93.91;100116.62;3441159;84;98823;-89
2022/10/02 09:44:02;;;;;;;11.63;3.00;;;;;;;13.33;93.70;100126.91;3450726;83;30117;-85
2022/10/02 09:49:33;;;;;;;15.48;3.80;;;;;;;13.40;94.29;100095.69;3506771;83;26006;-86
2022/10/02 09:54:58;;;;;;;11.30;3.45;;;;;;;14.09;95.03;100097.16;3430726;84;98884;-85
2022/10/02 10:00:05;;;;;;;11.83;3.90;;;;;;;14.52;93.23;100106.68;3428643;84;31669;-85
2022/10/02 10:05:53;;;;;;;8.08;2.40;;;;;;;14.81;90.80;100091.32;3434468;84;98749;-88
2022/10/02 10:11:41;;;;;;;10.18;2.72;;;;;;;15.36;91.81;100091.07;3438990;84;32188;-88
2022/10/02 10:17:38;;;;;;;6.62;1.62;;;;;;;15.72;87.39;100085.98;3423724;84;98683;-84
2022/10/02 10:23:08;;;;;;;11.28;2.50;;;;;;;16.24;86.27;100089.87;3443409;84;26750;-88
2022/10/02 10:28:20;;;;;;;9.85;2.00;;;;;;;16.67;81.82;100086.53;3398031;84;99220;-87
2022/10/02 10:33:53;;;;;;;7.40;2.12;;;;;;;17.12;81.62;100092.40;3436696;84;31724;-85
2022/10/02 10:39:39;;;;;;;8.93;2.85;;;;;;;17.67;79.67;100095.98;3440236;84;31855;-85
2022/10/02 10:45:00;;;;;;;6.80;1.90;;;;;;;18.02;80.00;100090.16;3432974;84;98949;-86
2022/10/02 10:50:23;;;;;;;4.55;1.80;;;;;;;18.44;77.31;100084.34;3423586;85;31740;-85
2022/10/02 10:55:58;;;;;;;6.50;2.17;;;;;;;18.53;76.78;100084.48;3414854;85;98682;-85
2022/10/02 11:01:18;;;;;;;5.42;1.77;;;;;;;18.78;76.13;100086.59;3419028;85;31743;-85
2022/10/02 11:06:31;;;;;;;7.30;2.12;;;;;;;18.83;74.58;100078.48;3397530;85;98595;-87
2022/10/02 11:11:40;;;;;;;7.35;2.90;;;;;;;18.78;74.64;100091.57;3421060;85;32239;-87
2022/10/02 11:16:58;;;;;;;9.80;2.52;;;;;;;18.85;74.76;100088.58;3417594;85;98570;-86
2022/10/02 11:22:28;;;;;;;8.33;2.00;;;;;;;19.09;73.29;100084.33;3407459;85;32320;-87
2022/10/02 11:27:51;;;;;;;6.62;2.47;;;;;;;19.15;72.62;100076.17;3375055;85;98648;-85
2022/10/02 11:33:27;;;;;;;7.78;2.55;;;;;;;19.03;73.00;100073.52;3421676;85;31653;-86
2022/10/02 11:38:56;;;;;;;6.43;1.93;;;;;;;19.02;72.38;100071.19;3410534;85;98211;-86
2022/10/02 11:44:05;;;;;;;13.72;2.55;;;;;;;18.61;70.85;100070.55;3400492;84;98714;-86
2022/10/02 11:49:57;;;;;;;5.47;1.62;;;;;;;18.47;72.63;100070.14;3414150;85;32271;-84
2022/10/02 11:55:15;;;;;;;7.83;1.85;;;;;;;18.60;72.20;100058.44;3416439;85;98594;-85
2022/10/02 12:00:55;;;;;;;7.10;1.87;;;;;;;18.49;70.69;100049.58;3425874;85;31660;-84
2022/10/02 12:06:19;;;;;;;6.33;1.85;;;;;;;18.37;71.14;100053.86;3400470;85;98646;-86
2022/10/02 12:11:51;;;;;;;6.80;2.20;;;;;;;18.38;69.15;100046.30;3420237;85;32438;-85
2022/10/02 12:17:07;;;;;;;6.15;1.80;;;;;;;18.55;71.92;100031.89;3410441;85;98561;-85
2022/10/02 12:28:05;;;;;;;6.67;2.00;;;;;;;18.58;69.53;100019.84;3417164;85;98419;-85
2022/10/02 12:33:33;;;;;;;5.12;2.00;;;;;;;18.48;68.50;100022.94;3423537;85;31729;-84
2022/10/02 12:38:49;;;;;;;6.25;2.00;;;;;;;18.48;69.49;100025.09;3422281;85;31640;-85
2022/10/02 12:44:20;;;;;;;4.87;1.70;;;;;;;18.53;68.60;100016.20;3413426;85;98544;-86
2022/10/02 12:49:44;;;;;;;8.93;1.72;;;;;;;18.75;70.27;100007.41;3512171;82;31708;-85
2022/10/02 12:55:11;;;;;;;5.40;1.77;;;;;;;18.74;68.11;100011.42;3502031;82;98570;-84
2022/10/02 13:00:16;;;;;;;7.90;2.22;;;;;;;18.64;67.74;100007.56;3521352;82;31772;-85
2022/10/02 13:06:00;;;;;;;11.50;1.67;;;;;;;18.65;67.77;100006.33;3507633;82;98478;-86
2022/10/02 13:11:18;;;;;;;7.15;1.80;;;;;;;18.59;66.93;100001.12;3514508;82;31686;-87
2022/10/02 13:16:47;;;;;;;5.25;1.80;;;;;;;18.47;66.72;99997.06;3512166;82;98504;-83
2022/10/02 13:21:58;;;;;;;6.00;1.40;;;;;;;18.40;68.03;99993.69;3513676;82;31759;-85
2022/10/02 13:27:31;;;;;;;8.55;1.65;;;;;;;18.43;68.49;99985.86;3489988;82;99020;-87
2022/10/02 13:32:59;;;;;;;8.68;1.65;;;;;;;18.40;68.00;99993.69;3509611;82;31632;-87
2022/10/02 13:38:11;;;;;;;7.83;2.15;;;;;;;18.23;66.68;99994.92;3502993;82;98274;-88
2022/10/02 13:43:21;;;;;;;10.95;2.83;;;;;;;17.93;66.29;99985.59;3518885;82;31736;-88
2022/10/02 13:49:02;;;;;;;10.68;2.58;;;;;;;17.78;66.33;99984.38;3456377;84;98352;-88
2022/10/02 13:54:17;;;;;;;6.05;2.33;;;;;;;17.51;66.41;99999.95;3411432;85;98839;-88
2022/10/02 14:00:02;;;;;;;10.80;2.10;;;;;;;17.32;66.42;99999.96;3507356;82;31944;-86
2022/10/02 14:05:32;;;;;;;8.63;1.42;;;;;;;17.10;66.54;99996.89;3499462;82;98948;-87
2022/10/02 14:11:02;;;;;;;6.65;2.60;;;;;;;16.82;66.39;99993.93;3511836;82;31637;-86
2022/10/02 14:16:29;;;;;;;3.30;1.40;;;;;;;16.60;66.83;99989.43;3509507;82;98863;-87
2022/10/02 14:21:37;;;;;;;4.62;1.60;;;;;;;16.41;67.29;99985.27;3501140;82;32480;-89
2022/10/02 14:26:52;;;;;;;4.20;1.20;;;;;;;16.22;67.25;99974.28;3505839;82;98610;-88
2022/10/02 14:32:17;;;;;;;5.40;1.80;;;;;;;16.08;68.56;99976.55;3516642;82;31601;-87
2022/10/02 14:37:46;;;;;;;6.37;2.10;;;;;;;16.10;69.76;99982.45;3511102;82;98509;-88
2022/10/02 14:43:32;;;;;;;9.30;2.00;;;;;;;16.07;70.26;99981.92;3514093;82;31734;-87
2022/10/02 14:48:48;;;;;;;4.83;2.10;;;;;;;15.93;70.69;99984.34;3477230;83;97909;-89
2022/10/02 14:54:12;;;;;;;7.70;2.63;;;;;;;15.78;71.04;99988.56;3477898;83;98967;-88
2022/10/02 14:59:47;;;;;;;8.70;2.58;;;;;;;15.72;71.65;99992.23;3496075;82;32217;-88
2022/10/02 15:05:15;;;;;;;8.35;2.25;;;;;;;15.57;71.80;99992.28;3476546;83;98367;-89
2022/10/02 15:10:31;;;;;;;13.22;4.28;;;;;;;15.41;71.86;99981.84;3425949;82;31069;-87
2022/10/02 15:21:27;;;;;;;8.03;2.85;;;;;;;15.19;71.37;99992.24;3488633;83;32252;-85
2022/10/02 15:27:01;;;;;;;5.40;2.63;;;;;;;15.01;71.52;99986.97;3480963;83;98476;-91
2022/10/02 15:32:17;;;;;;;6.75;2.70;;;;;;;14.87;72.03;99993.31;3486530;83;31784;-90
2022/10/02 15:38:07;;;;;;;3.92;1.95;;;;;;;14.73;72.36;100009.52;3487172;82;99161;-88
2022/10/02 15:43:22;;;;;;;5.77;1.30;;;;;;;14.64;73.12;100015.34;3485975;83;29065;-88
2022/10/02 15:48:52;;;;;;;3.08;1.42;;;;;;;14.53;73.61;100022.41;3498187;82;98559;-90
2022/10/02 15:54:17;;;;;;;5.67;1.50;;;;;;;14.47;74.30;100015.75;3427522;82;98843;-88
2022/10/02 15:59:53;;;;;;;5.53;1.40;;;;;;;14.42;74.68;100024.50;3498896;82;25698;-88
2022/10/02 16:05:11;;;;;;;3.85;1.50;;;;;;;14.36;75.29;100028.92;3497513;82;98798;-90
2022/10/02 16:10:26;;;;;;;3.30;1.40;;;;;;;14.31;76.16;100027.19;3514363;82;32259;-90
2022/10/02 16:15:32;;;;;;;3.10;1.35;;;;;;;14.29;77.39;100036.52;3506313;82;98530;-89
2022/10/02 16:20:51;;;;;;;4.92;1.50;;;;;;;14.24;78.50;100043.30;3514757;82;32198;-90
2022/10/02 16:26:09;;;;;;;4.22;1.77;;;;;;;14.11;78.83;100039.41;3464495;82;98731;-90
2022/10/02 16:31:38;;;;;;;6.53;2.77;;;;;;;13.97;79.57;100056.16;3498000;82;31652;-89
2022/10/02 16:36:58;;;;;;;6.08;2.55;;;;;;;13.88;80.42;100052.27;3504369;82;98615;-89
2022/10/02 16:42:21;;;;;;;7.60;2.47;;;;;;;13.76;80.89;100059.09;3519299;82;30186;-89
2022/10/02 16:48:08;;;;;;;8.00;2.80;;;;;;;13.64;81.21;100061.55;3518227;82;98480;-89
2022/10/02 16:53:23;;;;;;;6.10;1.82;;;;;;;13.57;81.83;100060.23;3536553;82;32212;-89
2022/10/02 16:58:52;;;;;;;9.20;3.50;;;;;;;13.46;82.29;100053.38;3529664;82;98445;-89
2022/10/02 17:04:13;;;;;;;8.03;2.52;;;;;;;13.41;83.01;100059.94;3526562;82;98630;-89
2022/10/02 17:09:48;;;;;;;7.25;2.87;;;;;;;13.33;83.02;100067.48;3535740;82;31647;-91
2022/10/02 17:15:13;;;;;;;12.78;4.15;;;;;;;13.18;84.48;100086.70;3524528;82;99072;-90
2022/10/02 17:20:32;;;;;;;9.73;3.55;;;;;;;13.09;85.85;100111.82;3536430;82;31598;-92
2022/10/02 17:25:50;;;;;;;7.22;3.12;;;;;;;13.06;86.21;100134.13;3521988;82;98469;-91
2022/10/02 17:31:08;;;;;;;5.72;2.10;;;;;;;13.02;86.18;100130.59;3531333;82;32226;-91
2022/10/02 17:36:35;;;;;;;8.83;3.12;;;;;;;12.97;85.94;100129.61;3523360;82;98659;-91
2022/10/02 17:42:03;;;;;;;7.72;3.05;;;;;;;12.97;85.94;100129.61;3535077;82;25838;-91
2022/10/02 17:47:33;;;;;;;11.50;5.40;;;;;;;12.95;86.23;100147.16;3517753;82;98506;-91
2022/10/02 17:58:28;;;;;;;15.60;9.25;;;;;;;12.86;86.81;100147.39;3459157;82;99196;-91
2022/10/02 18:04:04;;;;;;;30.27;21.30;;;;;;;12.79;86.94;100150.16;3513220;82;31613;-91
2022/10/02 18:09:47;;;;;;;19.00;11.07;;;;;;;12.70;86.99;100147.03;3490413;82;25916;-92
2022/10/02 18:15:15;;;;;;;10.90;5.35;;;;;;;12.59;87.03;100151.79;3451244;83;99503;-91
2022/10/02 18:20:44;;;;;;;11.57;5.50;;;;;;;12.44;87.04;100159.88;3514521;82;31086;-91
2022/10/02 18:26:29;;;;;;;11.68;4.45;;;;;;;12.32;87.15;100165.81;3497372;82;98717;-90
2022/10/02 18:31:44;;;;;;;10.27;3.53;;;;;;;12.14;87.00;100158.91;3426316;84;25955;-90
2022/10/02 18:37:23;;;;;;;7.60;2.75;;;;;;;11.95;87.13;100162.63;3486292;82;98748;-90
2022/10/02 18:42:39;;;;;;;6.40;2.33;;;;;;;11.82;87.76;100158.69;3509305;82;29902;-90
2022/10/02 18:48:00;;;;;;;8.37;2.93;;;;;;;11.62;88.07;100154.09;3503974;82;98596;-91
2022/10/02 18:53:18;;;;;;;7.33;2.40;;;;;;;11.57;88.65;100157.80;3485473;83;27999;-91
2022/10/02 18:58:55;;;;;;;15.63;7.40;;;;;;;11.53;89.00;100166.64;3469014;83;98505;-91
2022/10/02 19:04:10;;;;;;;19.00;8.63;;;;;;;11.42;89.22;100163.86;3477456;83;98984;-90
2022/10/02 19:09:27;;;;;;;15.00;6.80;;;;;;;11.35;89.80;100169.32;3479998;83;29949;-89
2022/10/02 19:14:40;;;;;;;10.43;4.53;;;;;;;11.27;89.92;100176.00;3481239;83;99300;-87
2022/10/02 19:19:42;;;;;;;10.60;3.33;;;;;;;11.17;90.08;100171.83;3485565;83;30754;-87
2022/10/02 19:24:50;;;;;;;7.20;3.52;;;;;;;11.06;90.49;100179.25;3479249;83;99025;-88
2022/10/02 19:30:03;;;;;;;9.03;3.40;;;;;;;11.01;90.87;100176.86;3477344;83;27846;-87
2022/10/02 19:35:33;;;;;;;9.03;3.40;;;;;;;10.90;90.87;100178.17;3467967;83;98682;-88
2022/10/02 19:40:36;;;;;;;9.85;4.30;;;;;;;10.83;91.32;100177.33;3479668;83;30691;-87
2022/10/02 19:45:40;;;;;;;11.13;3.03;;;;;;;10.72;91.67;100178.66;3483061;83;98681;-88
2022/10/02 19:50:46;;;;;;;12.25;3.42;;;;;;;10.64;91.80;100181.75;3486981;83;30957;-88
2022/10/02 19:55:57;;;;;;;10.93;3.77;;;;;;;10.55;92.46;100184.03;3484340;83;98615;-88
2022/10/02 20:00:58;;;;;;;8.03;3.58;;;;;;;10.49;93.10;100180.86;3476960;83;31789;-89
2022/10/02 20:06:07;;;;;;;7.63;3.53;;;;;;;10.43;92.96;100185.72;3480877;83;98543;-89
2022/10/02 20:11:16;;;;;;;12.03;3.83;;;;;;;10.39;93.46;100190.39;3487977;83;30360;-89
2022/10/02 20:21:46;;;;;;;11.78;6.03;;;;;;;10.19;94.11;100189.84;3484191;83;29821;-89
2022/10/02 20:26:50;;;;;;;13.40;4.87;;;;;;;10.08;94.66;100187.58;3482294;83;98688;-89
2022/10/02 20:32:08;;;;;;;9.35;3.47;;;;;;;10.06;95.27;100214.67;3474967;83;32293;-89
2022/10/02 20:37:22;;;;;;;7.60;2.70;;;;;;;10.09;96.25;100222.75;3474474;83;98637;-89
2022/10/02 20:42:28;;;;;;;6.72;2.30;;;;;;;10.11;96.13;100214.33;3474055;83;30870;-89
2022/10/02 20:48:02;;;;;;;7.67;2.15;;;;;;;10.16;96.37;100220.06;3466075;82;98385;-88
2022/10/02 20:53:29;;;;;;;5.58;1.90;;;;;;;10.22;96.70;100217.17;3500099;82;30412;-88
2022/10/02 20:58:56;;;;;;;8.87;3.60;;;;;;;10.30;96.85;100215.47;3508859;82;98270;-88
2022/10/02 21:04:14;;;;;;;7.70;3.60;;;;;;;10.38;97.03;100213.58;3508145;82;98653;-88
2022/10/02 21:10:11;;;;;;;14.13;4.30;;;;;;;10.43;97.35;100213.23;3498326;82;26590;-87
2022/10/02 21:15:26;;;;;;;14.87;5.40;;;;;;;10.46;97.59;100214.63;3500163;82;99274;-88
2022/10/02 21:21:09;;;;;;;7.95;2.70;;;;;;;10.55;97.33;100219.80;3493900;82;31585;-88
2022/10/02 21:26:34;;;;;;;27.98;12.00;;;;;;;10.60;97.26;100222.20;3494286;82;98805;-87
2022/10/02 21:31:59;;;;;;;13.48;5.05;;;;;;;10.66;97.19;100232.48;3490182;82;32853;-87
2022/10/02 21:37:26;;;;;;;18.92;8.53;;;;;;;10.70;96.80;100228.38;3491109;82;98518;-88
2022/10/02 21:43:05;;;;;;;9.15;3.27;;;;;;;10.73;96.64;100231.16;3483965;82;25948;-87
2022/10/02 21:48:52;;;;;;;5.12;2.00;;;;;;;10.71;96.34;100229.95;3494128;82;98376;-87
2022/10/02 21:54:34;;;;;;;6.83;2.20;;;;;;;10.70;96.20;100228.38;3451163;83;98782;-87
2022/10/02 22:00:20;;;;;;;5.65;1.62;;;;;;;10.65;96.28;100230.91;3461202;83;30354;-87
2022/10/02 22:05:45;;;;;;;7.20;1.90;;;;;;;10.68;96.31;100236.23;3476933;83;98717;-87
2022/10/02 22:11:08;;;;;;;6.17;1.82;;;;;;;10.71;96.38;100249.22;3476374;83;31750;-87
2022/10/02 22:16:33;;;;;;;5.20;1.75;;;;;;;10.73;96.23;100242.73;3475582;83;99160;-87
2022/10/02 22:22:11;;;;;;;7.30;1.90;;;;;;;10.77;96.24;100249.87;3472006;83;31626;-87
2022/10/02 22:27:41;;;;;;;10.28;2.80;;;;;;;10.79;96.01;100243.98;3483766;83;98727;-88
2022/10/02 22:33:16;;;;;;;6.05;1.80;;;;;;;10.80;95.99;100240.06;3476255;83;30259;-88
2022/10/02 22:38:34;;;;;;;6.40;1.72;;;;;;;10.77;95.73;100234.73;3464968;83;98781;-88
2022/10/02 22:44:01;;;;;;;5.05;1.75;;;;;;;10.79;95.72;100230.23;3457702;83;98941;-88
2022/10/02 22:49:30;;;;;;;6.20;1.92;;;;;;;10.77;95.68;100229.22;3499789;82;32279;-88
2022/10/02 22:54:48;;;;;;;6.53;2.00;;;;;;;10.67;95.78;100223.05;3521611;82;98888;-88
2022/10/02 22:59:57;;;;;;;6.90;2.20;;;;;;;10.78;95.90;100234.92;3520060;82;29428;-87
2022/10/02 23:05:31;;;;;;;5.17;1.82;;;;;;;10.77;96.09;100238.05;3413872;85;98691;-88
2022/10/02 23:11:08;;;;;;;5.93;1.70;;;;;;;10.77;95.97;100232.55;3445849;84;28146;-88
2022/10/02 23:16:35;;;;;;;7.90;2.20;;;;;;;10.73;96.30;100241.36;3413394;84;98516;-87
2022/10/02 23:21:50;;;;;;;11.10;2.40;;;;;;;10.67;96.75;100244.27;3426820;84;26154;-88
2022/10/02 23:27:18;;;;;;;8.50;2.60;;;;;;;10.62;97.02;100237.73;3412167;84;99195;-87
2022/10/02 23:32:46;;;;;;;11.27;3.07;;;;;;;10.59;97.39;100237.14;3437938;84;26963;-84
2022/10/02 23:38:16;;;;;;;8.20;3.08;;;;;;;10.56;97.88;100229.63;3409795;84;98804;-87
2022/10/02 23:43:26;;;;;;;11.10;2.33;;;;;;;10.53;98.55;100233.94;3442115;84;28870;-87
2022/10/02 23:48:28;;;;;;;15.90;2.73;;;;;;;10.53;99.49;100230.41;3420942;84;98623;-86
2022/10/02 23:53:44;;;;;;;10.48;2.58;;;;;;;10.55;99.68;100228.86;3422554;84;32800;-87
2022/10/02 23:59:20;;;;;;;9.70;2.87;;;;;;;10.58;100.00;100228.69;3392649;85;27356;-88
